Isabella — 9HSL7 — position and weather

sailwx.info

Track history (hours):
 
Tides and Currents Weather Stations Pressure Air Temp Water Temp Dewpoint Dewpoint Depression Visibility Wind Speed Wind Dir Waves Ship Positions

Isabella

Last reported at 2014-Sep-16 00:33 UTC. Time now 2014-Sep-16 00:59 UTC.
Position N 44°36' E 037°36'.

Length 244 m; draft 13.5 m.

Type: Tanker. MMSI: 215545000.

Date/timePositionNaut miles runAvg speedWind from/ knotsBaromVisibWave heightAir tempDewpointWater temp
2014-Sep-16 00:33N 44°36' E 037°36'2 0.1
2014-Sep-15 08:30N 44°38' E 037°37'4 3.8
2014-Sep-15 07:33N 44°36' E 037°41'1 1.1
2014-Sep-15 06:33N 44°37' E 037°42'0 0.4
2014-Sep-15 05:33N 44°37' E 037°43'8 7.7
2014-Sep-15 04:33N 44°30' E 037°39'10 9.6
2014-Sep-15 03:33N 44°24' E 037°28'391 9.4
2014-Sep-13 10:07N 41°32' E 029°29'610.1
2014-Sep-13 09:34N 41°27' E 029°25'1010.4
2014-Sep-13 08:34N 41°20' E 029°15'22 9.4
2014-Sep-13 06:16N 41°01' E 028°60'6 8.6
2014-Sep-13 05:33N 40°55' E 028°58'7 6.5
2014-Sep-13 04:29N 40°49' E 028°53'0 0.3
2014-Sep-13 03:30N 40°49' E 028°53'1 1.4
2014-Sep-13 02:33N 40°50' E 028°54'5 4.7
2014-Sep-13 01:26N 40°50' E 028°47'140 9.3
2014-Sep-12 10:22N 39°56' E 025°57'6 7.4
2014-Sep-12 09:33N 39°51' E 025°53'8 8.3
2014-Sep-12 08:33N 39°44' E 025°57'1 0.5
2014-Sep-12 07:31N 39°43' E 025°57'1 1.0
2014-Sep-12 06:33N 39°43' E 025°56'10 9.5
2014-Sep-12 05:33N 39°42' E 025°44'1514.2
2014-Sep-12 04:30N 39°43' E 025°24'1313.6
2014-Sep-12 03:33N 39°43' E 025°08'  
2014-Sep-09 14:09N 39°41' E 025°11'1110.8
2014-Sep-09 13:09N 39°41' E 025°25'2110.7
2014-Sep-09 11:11N 39°54' E 025°47'185 3.7
2014-Sep-07 09:27N 41°23' E 029°20'6 6.2
2014-Sep-07 08:33N 41°23' E 029°28'9 0.4
2014-Sep-06 12:32N 41°32' E 029°26'9 8.9
2014-Sep-06 11:33N 41°32' E 029°38'  
Track history (hours):
 
Tides and Currents Weather Stations Pressure Air Temp Water Temp Dewpoint Dewpoint Depression Visibility Wind Speed Wind Dir Waves Ship Positions

Isabella

Last reported at 2014-Sep-16 00:33 UTC. Time now 2014-Sep-16 00:59 UTC.
Position N 44°36' E 037°36'.

Length 244 m; draft 13.5 m.

Type: Tanker. MMSI: 215545000.

Date/timePositionNaut miles runAvg speedWind from/ knotsBaromVisibWave heightAir tempDewpointWater temp
2014-Sep-16 00:33N 44°36' E 037°36'2 0.1
2014-Sep-15 08:30N 44°38' E 037°37'4 3.8
2014-Sep-15 07:33N 44°36' E 037°41'1 1.1
2014-Sep-15 06:33N 44°37' E 037°42'0 0.4
2014-Sep-15 05:33N 44°37' E 037°43'8 7.7
2014-Sep-15 04:33N 44°30' E 037°39'10 9.6
2014-Sep-15 03:33N 44°24' E 037°28'391 9.4
2014-Sep-13 10:07N 41°32' E 029°29'610.1
2014-Sep-13 09:34N 41°27' E 029°25'1010.4
2014-Sep-13 08:34N 41°20' E 029°15'22 9.4
2014-Sep-13 06:16N 41°01' E 028°60'6 8.6
2014-Sep-13 05:33N 40°55' E 028°58'7 6.5
2014-Sep-13 04:29N 40°49' E 028°53'0 0.3
2014-Sep-13 03:30N 40°49' E 028°53'1 1.4
2014-Sep-13 02:33N 40°50' E 028°54'5 4.7
2014-Sep-13 01:26N 40°50' E 028°47'140 9.3
2014-Sep-12 10:22N 39°56' E 025°57'6 7.4
2014-Sep-12 09:33N 39°51' E 025°53'8 8.3
2014-Sep-12 08:33N 39°44' E 025°57'1 0.5
2014-Sep-12 07:31N 39°43' E 025°57'1 1.0
2014-Sep-12 06:33N 39°43' E 025°56'10 9.5
2014-Sep-12 05:33N 39°42' E 025°44'1514.2
2014-Sep-12 04:30N 39°43' E 025°24'1313.6
2014-Sep-12 03:33N 39°43' E 025°08'  
2014-Sep-09 14:09N 39°41' E 025°11'1110.8
2014-Sep-09 13:09N 39°41' E 025°25'2110.7
2014-Sep-09 11:11N 39°54' E 025°47'185 3.7
2014-Sep-07 09:27N 41°23' E 029°20'6 6.2
2014-Sep-07 08:33N 41°23' E 029°28'9 0.4
2014-Sep-06 12:32N 41°32' E 029°26'9 8.9
2014-Sep-06 11:33N 41°32' E 029°38'  

Dump ship's entire track history